Terminal Aerodrome Forecast
Issued by NWS Wichita, KS

Home | Current Version | Previous Version | Text Only | Print | Product List | Glossary On
Versions: 1 2 3 4 5 6 7 8 9 10 11 12 13 14
000
FTUS43 KICT 292337
TAFICT
TAF
KICT 292337Z 3000/3024 35007KT P6SM BKN250
     FM300600 VRB03KT P6SM BKN250
     FM301600 17007KT P6SM SCT100=

USA.gov is the U.S. government's official web portal to all federal, state and local government web resources and services.